createdAt,value
2019-04-24T00:00:41.470Z,14.12
2019-04-24T00:08:16.030Z,14.04
2019-04-24T00:11:10.083Z,14.00
2019-04-24T00:15:59.122Z,13.90
2019-04-24T00:18:53.607Z,13.87
2019-04-24T00:21:20.077Z,13.83
2019-04-24T00:23:50.694Z,13.78
2019-04-24T00:26:09.987Z,13.75
2019-04-24T00:28:49.545Z,13.72
2019-04-24T00:31:09.819Z,13.65
2019-04-24T00:33:50.931Z,13.62
2019-04-24T00:36:32.452Z,13.57
2019-04-24T00:38:48.278Z,13.55
2019-04-24T01:06:49.426Z,13.16
2019-04-24T01:11:48.589Z,13.10
2019-04-24T01:14:12.513Z,13.07
2019-04-24T01:17:06.522Z,13.03
2019-04-24T01:19:15.977Z,13.03
2019-04-24T01:22:01.183Z,12.99
2019-04-24T01:24:12.413Z,12.94
2019-04-24T01:26:59.837Z,12.89
2019-04-24T01:31:47.108Z,12.80
2019-04-24T01:44:55.653Z,12.63
2019-04-24T01:54:50.703Z,12.58
2019-04-24T01:57:23.340Z,12.57
2019-04-24T01:59:48.701Z,12.56
2019-04-24T02:02:40.442Z,12.55
2019-04-24T02:04:55.126Z,12.53
2019-04-24T02:10:38.834Z,12.52
2019-04-24T02:12:55.253Z,12.53
2019-04-24T02:15:15.368Z,12.48
2019-04-24T02:20:24.114Z,12.43
2019-04-24T02:25:22.710Z,12.38
2019-04-24T02:30:19.286Z,12.31
2019-04-24T02:33:03.433Z,12.30
2019-04-24T02:38:03.878Z,12.24
2019-04-24T02:40:24.102Z,12.23
2019-04-24T02:45:24.909Z,12.17
2019-04-24T02:48:01.006Z,12.15
2019-04-24T02:50:13.598Z,12.12
2019-04-24T02:52:58.382Z,12.08
2019-04-24T03:03:05.602Z,11.93
2019-04-24T03:17:49.266Z,11.76
2019-04-24T03:20:51.887Z,11.75
2019-04-24T03:23:05.031Z,11.72
2019-04-24T03:28:02.868Z,11.65
2019-04-24T03:41:21.588Z,11.52
2019-04-24T03:43:32.895Z,11.48
2019-04-24T03:45:44.541Z,11.45
2019-04-24T03:48:19.971Z,11.41
2019-04-24T03:53:57.930Z,11.04
2019-04-24T03:55:55.021Z,11.32
2019-04-24T04:01:08.330Z,11.26
2019-04-24T04:03:40.911Z,11.22
2019-04-24T04:06:17.766Z,11.19
2019-04-24T04:16:19.518Z,11.05
2019-04-24T04:23:54.031Z,10.97
2019-04-24T04:26:25.992Z,10.98
2019-04-24T04:28:59.882Z,10.97
2019-04-24T04:31:31.188Z,10.98
2019-04-24T04:41:29.258Z,10.98
2019-04-24T04:46:54.686Z,11.01
2019-04-24T04:49:11.129Z,10.99
2019-04-24T04:51:26.128Z,11.00
2019-04-24T04:53:55.385Z,11.00
2019-04-24T04:56:31.743Z,11.03
2019-04-24T05:04:13.928Z,11.07
2019-04-24T05:07:09.498Z,11.09
2019-04-24T05:21:42.485Z,11.31
2019-04-24T05:27:04.869Z,11.36
2019-04-24T05:29:02.090Z,11.40
2019-04-24T05:31:38.318Z,11.44
2019-04-24T05:36:44.309Z,11.53
2019-04-24T05:39:26.746Z,11.59
2019-04-24T05:41:45.393Z,11.64
2019-04-24T05:46:47.411Z,11.76
2019-04-24T05:49:14.475Z,11.81
2019-04-24T05:51:50.776Z,11.89
2019-04-24T05:54:15.069Z,11.95
2019-04-24T05:57:21.103Z,12.03
2019-04-24T06:07:25.067Z,12.34
2019-04-24T06:12:17.671Z,12.53
2019-04-24T06:14:54.059Z,12.63
2019-04-24T06:17:24.006Z,12.70
2019-04-24T06:20:03.773Z,12.81
2019-04-24T06:22:25.605Z,12.92
2019-04-24T06:25:26.605Z,13.03
2019-04-24T06:27:35.248Z,13.14
2019-04-24T06:32:36.439Z,13.34
2019-04-24T06:38:02.884Z,13.63
2019-04-24T06:40:47.068Z,13.84
2019-04-24T06:43:06.462Z,13.99
2019-04-24T06:50:52.298Z,14.26
2019-04-24T06:57:54.625Z,14.48
2019-04-24T07:03:33.951Z,14.79
2019-04-24T07:05:35.891Z,14.98
2019-04-24T07:08:08.691Z,15.14
2019-04-24T07:11:02.085Z,15.27
2019-04-24T07:16:10.116Z,15.99
2019-04-24T07:18:34.158Z,16.34
2019-04-24T07:21:21.882Z,16.64
2019-04-24T07:23:54.570Z,16.89
2019-04-24T07:28:52.463Z,17.37
2019-04-24T07:36:46.330Z,18.07
2019-04-24T07:39:10.707Z,17.09
2019-04-24T07:44:08.436Z,18.82
2019-04-24T07:46:41.968Z,19.12
2019-04-24T07:51:53.368Z,19.37
2019-04-24T08:02:08.824Z,19.87
2019-04-24T08:04:50.118Z,20.13
2019-04-24T08:07:09.416Z,20.38
2019-04-24T08:10:03.347Z,20.49
2019-04-24T08:12:07.518Z,20.65
2019-04-24T08:15:02.914Z,20.81
2019-04-24T08:17:07.917Z,21.07
2019-04-24T08:19:51.539Z,21.33
2019-04-24T08:22:10.893Z,21.51
2019-04-24T08:29:37.238Z,22.34
2019-04-24T08:32:25.096Z,22.58
2019-04-24T08:34:39.237Z,22.79
2019-04-24T08:37:09.890Z,22.87
2019-04-24T08:47:27.981Z,23.66
2019-04-24T08:49:57.227Z,23.87
2019-04-24T08:55:03.224Z,24.26
2019-04-24T08:57:25.554Z,24.59
2019-04-24T09:02:45.278Z,25.22
2019-04-24T09:07:52.326Z,25.48
2019-04-24T09:15:17.016Z,25.43
2019-04-24T09:20:25.625Z,25.79
2019-04-24T09:22:42.402Z,25.87
2019-04-24T09:28:05.221Z,26.24
2019-04-24T09:30:41.982Z,26.17
2019-04-24T09:38:37.330Z,26.67
2019-04-24T09:43:56.996Z,26.93
2019-04-24T09:46:18.512Z,27.17
2019-04-24T09:56:50.036Z,27.87
2019-04-24T10:01:40.912Z,27.99
2019-04-24T10:07:12.142Z,28.06
2019-04-24T10:12:25.302Z,27.96
2019-04-24T10:14:40.229Z,28.01
2019-04-24T10:17:05.385Z,27.98
2019-04-24T10:19:59.524Z,28.08
2019-04-24T10:21:58.606Z,28.34
2019-04-24T10:24:49.450Z,28.48
2019-04-24T10:27:12.130Z,28.64
2019-04-24T10:29:55.678Z,28.67
2019-04-24T10:35:08.218Z,27.22
2019-04-24T10:38:21.989Z,29.26
2019-04-24T10:40:27.304Z,29.37
2019-04-24T10:43:27.141Z,29.47
2019-04-24T10:45:41.034Z,29.34
2019-04-24T10:48:41.201Z,29.32
2019-04-24T10:53:35.149Z,29.26
2019-04-24T10:58:35.926Z,29.23
2019-04-24T11:03:52.583Z,29.39
2019-04-24T11:06:07.100Z,29.39
2019-04-24T11:09:10.502Z,29.51
2019-04-24T11:11:34.674Z,29.64
2019-04-24T11:19:47.641Z,29.85
2019-04-24T11:22:25.360Z,29.87
2019-04-24T11:25:05.320Z,29.68
2019-04-24T11:30:11.610Z,29.72
2019-04-24T11:38:04.019Z,29.84
2019-04-24T11:40:36.834Z,29.81
2019-04-24T11:42:53.877Z,29.96
2019-04-24T11:45:36.537Z,30.07
2019-04-24T11:48:12.215Z,29.19
2019-04-24T11:53:11.482Z,30.20
2019-04-24T11:55:42.474Z,30.29
2019-04-24T12:00:36.131Z,30.22
2019-04-24T12:03:23.528Z,30.27
2019-04-24T12:11:16.633Z,30.59
2019-04-24T12:13:51.385Z,30.46
2019-04-24T12:16:06.540Z,30.45
2019-04-24T12:21:19.841Z,30.51
2019-04-24T12:23:48.957Z,30.58
2019-04-24T12:26:09.583Z,30.50
2019-04-24T12:28:52.455Z,30.63
2019-04-24T12:31:05.042Z,30.76
2019-04-24T12:33:44.803Z,30.63
2019-04-24T12:36:13.056Z,30.89
2019-04-24T12:38:55.278Z,30.84
2019-04-24T12:44:10.652Z,30.42
2019-04-24T12:49:03.023Z,30.49
2019-04-24T12:51:36.704Z,30.74
2019-04-24T12:54:19.748Z,30.81
2019-04-24T12:57:06.780Z,30.78
2019-04-24T12:59:19.620Z,30.73
2019-04-24T13:01:57.587Z,30.50
2019-04-24T13:06:53.081Z,30.37
2019-04-24T13:09:35.434Z,30.43
2019-04-24T13:12:19.694Z,30.37
2019-04-24T13:14:45.338Z,30.21
2019-04-24T13:21:44.098Z,30.08
2019-04-24T13:24:36.347Z,30.32
2019-04-24T13:27:16.251Z,30.39
2019-04-24T13:32:37.312Z,30.34
2019-04-24T13:35:06.401Z,30.19
2019-04-24T13:37:48.528Z,30.30
2019-04-24T13:40:18.763Z,30.38
2019-04-24T13:42:45.915Z,30.17
2019-04-24T13:45:09.330Z,30.03
2019-04-24T13:47:46.274Z,29.79
2019-04-24T13:50:15.536Z,28.68
2019-04-24T13:53:15.740Z,29.56
2019-04-24T13:55:03.799Z,29.39
2019-04-24T13:57:35.849Z,29.01
2019-04-24T14:00:21.016Z,29.09
2019-04-24T14:03:03.338Z,29.13
2019-04-24T14:05:02.061Z,29.22
2019-04-24T14:10:30.811Z,29.46
2019-04-24T14:17:24.404Z,28.59
2019-04-24T14:22:58.412Z,28.69
2019-04-24T14:25:25.318Z,28.74
2019-04-24T14:27:55.247Z,28.85
2019-04-24T14:30:12.505Z,28.98
2019-04-24T14:32:50.548Z,29.00
2019-04-24T14:35:18.703Z,29.11
2019-04-24T14:37:46.886Z,28.62
2019-04-24T14:40:13.656Z,28.58
2019-04-24T14:42:38.815Z,28.34
2019-04-24T14:45:29.810Z,26.21
2019-04-24T14:47:53.517Z,28.43
2019-04-24T14:50:24.947Z,28.62
2019-04-24T14:52:41.983Z,27.68
2019-04-24T14:57:44.031Z,28.62
2019-04-24T15:00:18.329Z,28.33
2019-04-24T15:02:47.065Z,28.09
2019-04-24T15:05:19.974Z,27.97
2019-04-24T15:07:51.805Z,27.92
2019-04-24T15:10:20.957Z,27.84
2019-04-24T15:12:37.408Z,27.86
2019-04-24T15:17:37.987Z,27.88
2019-04-24T15:22:46.951Z,27.92
2019-04-24T15:30:04.487Z,27.83
2019-04-24T15:32:35.801Z,27.87
2019-04-24T15:35:15.235Z,27.82
2019-04-24T15:37:33.726Z,27.22
2019-04-24T15:40:19.773Z,28.51
2019-04-24T15:42:26.568Z,28.69
2019-04-24T15:47:41.444Z,28.91
2019-04-24T15:50:00.653Z,28.79
2019-04-24T15:51:52.774Z,28.71
2019-04-24T15:54:19.539Z,28.54
2019-04-24T15:56:46.803Z,28.27
2019-04-24T15:59:36.596Z,28.18
2019-04-24T16:02:23.116Z,28.02
2019-04-24T16:04:52.123Z,27.73
2019-04-24T16:06:45.752Z,27.39
2019-04-24T16:09:21.280Z,27.31
2019-04-24T16:11:48.233Z,27.20
2019-04-24T16:14:36.835Z,27.03
2019-04-24T16:17:10.764Z,27.02
2019-04-24T16:19:40.954Z,26.92
2019-04-24T16:22:12.685Z,26.78
2019-04-24T16:24:52.191Z,26.58
2019-04-24T16:27:09.724Z,26.51
2019-04-24T16:29:30.472Z,26.45
2019-04-24T16:32:21.894Z,26.34
2019-04-24T16:34:34.164Z,26.27
2019-04-24T16:37:16.676Z,26.31
2019-04-24T16:39:32.250Z,26.35
2019-04-24T16:47:23.548Z,26.32
2019-04-24T16:54:50.917Z,25.99
2019-04-24T16:57:10.158Z,25.80
2019-04-24T16:59:31.943Z,25.70
2019-04-24T17:02:09.481Z,25.61
2019-04-24T17:04:53.621Z,25.53
2019-04-24T17:07:20.361Z,25.39
2019-04-24T17:09:51.059Z,25.29
2019-04-24T17:12:11.813Z,25.24
2019-04-24T17:14:45.252Z,25.21
2019-04-24T17:22:21.535Z,24.97
2019-04-24T17:24:55.971Z,24.88
2019-04-24T17:29:43.713Z,23.60
2019-04-24T17:32:21.793Z,24.70
2019-04-24T17:35:03.765Z,24.66
2019-04-24T17:39:25.811Z,24.57
2019-04-24T17:41:58.324Z,24.54
2019-04-24T17:50:04.928Z,24.18
2019-04-24T17:54:40.464Z,23.89
2019-04-24T17:57:13.146Z,23.85
2019-04-24T17:59:16.403Z,23.80
2019-04-24T18:01:43.154Z,23.71
2019-04-24T18:04:12.019Z,23.61
2019-04-24T18:06:38.977Z,23.53
2019-04-24T18:09:07.348Z,23.46
2019-04-24T18:11:34.231Z,23.40
2019-04-24T18:14:02.009Z,23.35
2019-04-24T18:16:29.401Z,23.27
2019-04-24T18:18:56.163Z,23.18
2019-04-24T18:21:23.189Z,23.06
2019-04-24T18:23:50.268Z,22.99
2019-04-24T18:26:19.041Z,22.90
2019-04-24T18:28:46.089Z,22.82
2019-04-24T18:31:14.144Z,22.78
2019-04-24T18:33:42.114Z,22.69
2019-04-24T18:36:09.745Z,22.62
2019-04-24T18:38:36.579Z,22.54
2019-04-24T18:41:04.327Z,22.51
2019-04-24T18:43:31.456Z,22.48
2019-04-24T18:45:58.436Z,22.44
2019-04-24T18:48:25.541Z,22.44
2019-04-24T18:50:52.276Z,22.40
2019-04-24T18:53:21.436Z,22.36
2019-04-24T18:55:49.129Z,22.33
2019-04-24T18:58:17.195Z,22.33
2019-04-24T19:00:44.573Z,22.31
2019-04-24T19:03:13.966Z,22.27
2019-04-24T19:05:41.501Z,22.26
2019-04-24T19:08:08.697Z,22.27
2019-04-24T19:10:36.000Z,22.26
2019-04-24T19:13:03.799Z,22.22
2019-04-24T19:15:32.275Z,20.88
2019-04-24T19:17:59.187Z,22.15
2019-04-24T19:20:27.298Z,22.11
2019-04-24T19:23:02.196Z,22.07
2019-04-24T19:25:23.365Z,22.04
2019-04-24T19:27:51.081Z,22.00
2019-04-24T19:30:21.671Z,21.94
2019-04-24T19:32:48.724Z,21.91
2019-04-24T19:35:15.810Z,21.85
2019-04-24T19:37:42.615Z,21.79
2019-04-24T19:40:25.652Z,21.75
2019-04-24T19:42:39.528Z,21.72
2019-04-24T19:45:06.351Z,21.67
2019-04-24T19:47:38.641Z,21.64
2019-04-24T19:50:07.474Z,21.56
2019-04-24T19:52:31.345Z,21.53
2019-04-24T19:54:58.615Z,21.51
2019-04-24T19:57:26.979Z,21.46
2019-04-24T19:59:54.204Z,21.46
2019-04-24T20:02:21.584Z,21.45
2019-04-24T20:04:48.452Z,21.43
2019-04-24T20:07:15.851Z,21.43
2019-04-24T20:09:50.288Z,21.41
2019-04-24T20:12:18.880Z,21.41
2019-04-24T20:14:46.139Z,21.40
2019-04-24T20:17:13.466Z,21.38
2019-04-24T20:19:41.638Z,21.35
2019-04-24T20:22:08.673Z,21.31
2019-04-24T20:24:35.815Z,21.29
2019-04-24T20:27:03.758Z,21.27
2019-04-24T20:29:31.163Z,21.26
2019-04-24T20:31:58.018Z,21.19
2019-04-24T20:34:25.308Z,21.15
2019-04-24T20:36:52.345Z,21.14
2019-04-24T20:39:19.618Z,21.08
2019-04-24T20:41:46.880Z,20.91
2019-04-24T20:44:15.798Z,20.79
2019-04-24T20:46:43.537Z,20.49
2019-04-24T20:49:11.212Z,20.12
2019-04-24T20:51:38.659Z,19.86
2019-04-24T20:54:05.933Z,19.64
2019-04-24T20:56:32.762Z,19.29
2019-04-24T20:58:59.615Z,19.24
2019-04-24T21:01:31.516Z,19.07
2019-04-24T21:03:58.918Z,18.86
2019-04-24T21:06:28.527Z,18.63
2019-04-24T21:09:00.327Z,18.10
2019-04-24T21:11:27.333Z,17.65
2019-04-24T21:13:54.297Z,17.31
2019-04-24T21:16:22.794Z,17.11
2019-04-24T21:18:50.387Z,16.85
2019-04-24T21:21:17.315Z,16.59
2019-04-24T21:23:53.935Z,15.09
2019-04-24T21:26:13.076Z,16.28
2019-04-24T21:28:41.701Z,16.15
2019-04-24T21:31:08.583Z,16.08
2019-04-24T21:33:35.829Z,15.93
2019-04-24T21:36:03.612Z,15.70
2019-04-24T21:38:31.379Z,15.55
2019-04-24T21:40:58.516Z,12.50
2019-04-24T21:43:29.758Z,15.36
2019-04-24T21:45:54.902Z,15.32
2019-04-24T21:48:22.661Z,15.28
2019-04-24T21:50:50.602Z,15.24
2019-04-24T21:53:17.463Z,15.16
2019-04-24T21:55:44.849Z,15.15
2019-04-24T21:58:12.017Z,15.04
2019-04-24T22:00:48.185Z,14.91
2019-04-24T22:03:21.848Z,14.88
2019-04-24T22:05:56.670Z,14.76
2019-04-24T22:08:24.687Z,14.75
2019-04-24T22:10:51.593Z,14.72
2019-04-24T22:13:18.649Z,14.67
2019-04-24T22:15:46.208Z,14.61
2019-04-24T22:18:14.353Z,14.54
2019-04-24T22:20:45.510Z,14.51
2019-04-24T22:23:29.791Z,14.46
2019-04-24T22:25:59.141Z,14.45
2019-04-24T22:28:26.595Z,14.40
2019-04-24T22:30:55.719Z,14.37
2019-04-24T22:33:23.054Z,14.34
2019-04-24T22:35:52.106Z,14.30
2019-04-24T22:38:21.268Z,14.28
2019-04-24T22:40:50.038Z,14.29
2019-04-24T22:43:18.036Z,14.24
2019-04-24T22:45:44.900Z,14.22
2019-04-24T22:48:12.042Z,14.20
2019-04-24T22:50:39.387Z,14.18
2019-04-24T22:53:06.267Z,14.13
2019-04-24T22:55:34.508Z,14.07
2019-04-24T22:58:02.093Z,14.05
2019-04-24T23:00:31.776Z,14.00
2019-04-24T23:02:59.517Z,13.97
2019-04-24T23:05:26.346Z,13.94
2019-04-24T23:07:53.574Z,13.88
2019-04-24T23:10:20.411Z,13.88
2019-04-24T23:12:47.194Z,13.86
2019-04-24T23:15:15.766Z,13.85
2019-04-24T23:17:42.657Z,13.81
2019-04-24T23:20:11.372Z,13.78
2019-04-24T23:22:43.244Z,13.76
2019-04-24T23:25:28.128Z,13.69
2019-04-24T23:27:59.325Z,13.64
2019-04-24T23:30:41.165Z,13.59
2019-04-24T23:33:13.135Z,13.53
2019-04-24T23:35:41.501Z,13.47
2019-04-24T23:38:08.875Z,13.42
2019-04-24T23:40:36.020Z,13.39
2019-04-24T23:43:03.073Z,13.31
2019-04-24T23:45:30.429Z,13.28
2019-04-24T23:47:57.173Z,13.23
2019-04-24T23:50:24.125Z,13.15
2019-04-24T23:52:51.875Z,13.08
2019-04-24T23:55:19.121Z,13.04
2019-04-24T23:57:46.180Z,12.95
